Latest Weather Observations for Fortescue Dave Forrest

IDW60801

Issued at 9:02 am WST Sunday 7 February 2016 (issued every 30 minutes, with the page automatically refreshed every 10 minutes)

About weather observations | Map of weather stations | Latest weather observations for WA | Other Formats
Station Details ID: 505056 Name: FORTESCUE DAVE FORREST Lat: -22.29 Lon: 119.43 Height: 474.6 m
Data from the previous 72 hours. | See also: Recent months for locations in Western Australia
Date/Time
WST
Temp
°C
App
Temp
°C
Dew
Point
Rel
Hum
%
Delta-T
°C
Wind Press
QNH
hPa
Press
MSL
hPa
Rain
since 9 am
mm
Dir
 
Spd
km/h
Gust
km/h
Spd
kts
Gust
kts
07/09:00am 31.4 27.7 7.8 23 13.2 ESE 17 24 9 13 1014.1 1010.2 0.0
07/08:30am 29.7 26.6 8.7 27 11.9 ESE 15 22 8 12 1013.9 1010.0 0.0
07/08:00am 28.2 24.9 9.5 31 10.6 ESE 17 22 9 12 1013.7 1009.8 0.0
07/07:30am 25.8 24.6 11.6 41 8.3 SE 9 17 5 9 1013.6 1009.7 0.0
07/07:00am 23.8 23.0 12.8 50 6.5 SE 9 15 5 8 1013.2 1009.4 0.0
07/06:30am 22.3 22.0 12.8 55 5.5 SSE 6 7 3 4 1013.0 1009.1 0.0
07/06:00am 20.7 20.6 12.1 58 4.9 ESE 4 7 2 4 1012.7 1008.8 0.0
07/05:30am 20.7 19.9 11.6 56 5.2 SE 7 9 4 5 1012.4 1008.5 0.0
07/05:00am 20.8 19.9 11.4 55 5.3 SE 7 9 4 5 1012.1 1008.2 0.0
07/04:30am 21.3 20.9 13.0 59 4.8 SSE 7 11 4 6 1011.9 1008.0 0.0
07/04:00am 22.1 22.3 14.2 61 4.7 S 6 11 3 6 1011.7 1007.8 0.0
07/03:30am 23.2 22.7 10.6 45 7.1 SE 4 6 2 3 1011.5 1007.6 0.0
07/03:00am 24.0 22.7 9.9 41 7.9 SE 7 11 4 6 1011.4 1007.5 0.0
07/02:30am 24.6 23.1 8.5 36 8.8 SE 6 7 3 4 1011.4 1007.5 0.0
07/02:00am 24.4 24.5 11.4 44 7.5 ESE 2 6 1 3 1011.4 1007.5 0.0
07/01:30am 26.4 25.0 9.7 35 9.4 E 7 11 4 6 1011.4 1007.5 0.0
07/01:00am 27.6 24.8 8.5 30 10.6 E 13 17 7 9 1011.6 1007.7 0.0
07/12:30am 28.1 25.0 8.9 30 10.8 E 15 19 8 10 1011.8 1007.9 0.0
07/12:00am 26.2 26.3 11.5 40 8.6 E 2 4 1 2 1012.0 1008.1 0.0
 
Date/Time
WST
Temp
°C
App
Temp
°C
Dew
Point
Rel
Hum
%
Delta-T
°C
Wind Press
QNH
hPa
Press
MSL
hPa
Rain
since 9 am
mm
Dir
 
Spd
km/h
Gust
km/h
Spd
kts
Gust
kts
06/11:30pm 26.4 25.7 11.3 39 8.8 ESE 6 9 3 5 1012.2 1008.3 0.0
06/11:00pm 27.9 27.5 11.0 35 9.8 E 4 7 2 4 1012.3 1008.4 0.0
06/10:30pm 27.5 28.0 12.7 40 8.8 WNW 2 2 1 1 1012.4 1008.5 0.0
06/10:00pm 28.4 27.6 11.0 34 10.1 E 6 9 3 5 1012.3 1008.4 0.0
06/09:30pm 28.8 27.7 10.5 32 10.6 ESE 7 11 4 6 1012.1 1008.2 0.0
06/09:00pm 29.7 27.9 9.3 28 11.6 ESE 9 11 5 6 1011.8 1007.9 0.0
06/08:30pm 30.2 28.3 9.1 27 12.0 ESE 9 13 5 7 1011.6 1007.7 0.0
06/08:00pm 30.3 29.0 9.8 28 11.8 ESE 7 11 4 6 1011.5 1007.6 0.0
06/07:30pm 31.6 29.4 9.2 25 12.9 ESE 11 15 6 8 1011.1 1007.2 0.0
06/07:00pm 32.5 31.0 9.3 24 13.4 ESE 7 13 4 7 1010.7 1006.8 0.0
06/06:30pm 34.6 31.0 8.4 20 15.1 ESE 17 20 9 11 1010.1 1006.2 0.0
06/06:00pm 35.4 32.9 8.3 19 15.6 SE 11 19 6 10 1009.9 1006.0 0.0
06/05:30pm 36.3 33.2 7.4 17 16.5 SSE 13 22 7 12 1009.8 1005.9 0.0
06/05:00pm 36.7 32.7 6.8 16 17.0 SE 17 28 9 15 1009.8 1005.9 0.0
06/04:30pm 37.3 33.4 5.3 14 17.8 SSE 15 22 8 12 1009.6 1005.7 0.0
06/04:00pm 37.2 33.7 7.2 16 17.2 S 15 28 8 15 1009.7 1005.8 0.0
06/03:30pm 37.4 34.3 7.3 16 17.2 SW 13 24 7 13 1009.7 1005.8 0.0
06/03:00pm 37.4 33.7 6.4 15 17.5 SSE 15 28 8 15 1010.0 1006.1 0.0
06/02:30pm 36.8 32.7 7.8 17 16.7 S 19 33 10 18 1010.3 1006.4 0.0
06/02:00pm 36.7 33.5 6.8 16 16.9 SSE 13 30 7 16 1010.6 1006.7 0.0
06/01:30pm 36.3 32.5 7.4 17 16.5 ESE 17 26 9 14 1010.9 1007.0 0.0
06/01:00pm 36.7 34.3 8.5 18 16.4 SE 11 24 6 13 1011.3 1007.4 0.0
06/12:30pm 34.4 32.3 8.2 20 15.0 SE 9 17 5 9 1011.6 1007.7 0.0
06/12:00pm 34.5 32.2 9.0 21 14.8 SE 11 20 6 11 1012.1 1008.2 0.0
06/11:30am 34.6 31.8 8.4 20 15.1 SE 13 20 7 11 1012.5 1008.6 0.0
06/11:00am 33.9 31.1 8.5 21 14.6 E 13 22 7 12 1013.0 1009.1 0.0
06/10:30am 33.3 31.5 9.4 23 13.9 E 9 20 5 11 1013.5 1009.6 0.0
06/10:00am 32.4 29.0 9.2 24 13.4 ESE 17 28 9 15 1013.7 1009.8 0.0
06/09:30am 32.1 28.2 9.6 25 13.0 ESE 20 30 11 16 1013.9 1010.0 0.0
06/09:00am 30.6 26.0 9.5 27 12.1 ESE 24 32 13 17 1013.9 1010.0 0.0
06/08:30am 29.2 27.0 12.2 35 10.1 ESE 15 20 8 11 1013.8 1009.9 0.0
06/08:00am 27.2 26.7 13.9 44 8.1 SE 9 13 5 7 1013.8 1009.9 0.0
06/07:30am 26.2 26.2 14.3 48 7.2 SE 7 13 4 7 1013.6 1009.7 0.0
06/07:00am 24.4 24.5 14.5 54 6.0 ESE 7 9 4 5 1013.5 1009.6 0.0
06/06:30am 23.5 23.8 14.5 57 5.4 ESE 6 9 3 5 1013.2 1009.4 0.0
06/06:00am 22.3 22.6 14.9 63 4.5 SSE 7 11 4 6 1012.8 1008.9 0.0
06/05:30am 21.8 22.7 16.1 70 3.5 E 6 11 3 6 1012.2 1008.3 0.0
06/05:00am 22.5 23.5 16.3 68 3.8 E 6 13 3 7 1011.9 1008.0 0.0
06/04:30am 22.6 22.5 15.9 66 4.1 SSE 11 13 6 7 1011.4 1007.5 0.0
06/04:00am 25.0 24.8 11.9 44 7.6 ESE 4 6 2 3 1011.0 1007.1 0.0
06/03:30am 24.9 25.9 14.4 52 6.4 NNE 2 4 1 2 1010.9 1007.0 0.0
06/03:00am 26.1 25.7 12.5 42 8.0 NE 6 7 3 4 1010.6 1006.7 0.0
06/02:30am 25.7 26.3 13.2 46 7.5 NNE 2 4 1 2 1010.6 1006.7 0.0
06/02:00am 26.3 25.8 12.0 41 8.4 ESE 6 7 3 4 1010.6 1006.7 0.0
06/01:30am 26.3 25.9 12.4 42 8.2 ESE 6 9 3 5 1010.6 1006.7 0.0
06/01:00am 27.3 26.9 12.9 41 8.6 E 7 11 4 6 1010.8 1006.9 0.0
06/12:30am 26.9 27.1 12.9 42 8.3 E 4 6 2 3 1011.1 1007.2 0.0
06/12:00am 27.3 28.1 13.6 43 8.3 N 2 4 1 2 1011.5 1007.6 0.0
 
Date/Time
WST
Temp
°C
App
Temp
°C
Dew
Point
Rel
Hum
%
Delta-T
°C
Wind Press
QNH
hPa
Press
MSL
hPa
Rain
since 9 am
mm
Dir
 
Spd
km/h
Gust
km/h
Spd
kts
Gust
kts
05/11:30pm 27.7 27.3 12.5 39 9.0 ESE 6 9 3 5 1011.7 1007.8 0.0
05/11:00pm 28.2 26.8 12.1 37 9.5 SE 11 15 6 8 1011.8 1007.9 0.0
05/10:30pm 28.4 27.3 11.9 36 9.7 SE 9 11 5 6 1011.9 1008.0 0.0
05/10:00pm 29.0 28.3 12.0 35 10.1 SE 7 11 4 6 1011.9 1008.0 0.0
05/09:30pm 29.9 28.4 11.9 33 10.7 ESE 11 15 6 8 1011.7 1007.8 0.0
05/09:00pm 30.3 28.9 12.2 33 10.8 SE 11 15 6 8 1011.5 1007.6 0.0
05/08:30pm 30.4 29.6 12.8 34 10.6 SE 9 13 5 7 1011.3 1007.4 0.0
05/08:00pm 31.0 30.0 12.4 32 11.2 SE 9 13 5 7 1010.8 1006.9 0.0
05/07:30pm 31.7 30.6 12.0 30 11.8 SSE 9 13 5 7 1010.7 1006.8 0.0
05/07:00pm 32.6 31.2 12.3 29 12.3 SSE 11 15 6 8 1010.3 1006.4 0.0
05/06:30pm 33.9 32.2 12.3 27 13.1 SSE 13 19 7 10 1009.9 1006.0 0.0
05/06:00pm 35.3 32.8 12.3 25 14.1 SSE 17 24 9 13 1009.7 1005.8 0.0
05/05:30pm 35.5 32.8 11.8 24 14.4 SSE 17 26 9 14 1009.4 1005.5 0.0
05/05:00pm 36.1 33.6 12.3 24 14.6 SE 17 22 9 12 1009.3 1005.3 0.0
05/04:30pm 36.8 34.8 11.6 22 15.3 SSE 13 19 7 10 1009.3 1005.3 0.0
05/04:00pm 36.5 33.9 12.0 23 15.0 SSE 17 41 9 22 1009.3 1005.3 0.0
05/03:30pm 36.7 34.5 12.2 23 15.0 SSE 15 26 8 14 1009.4 1005.5 0.0
05/03:00pm 37.1 35.3 13.2 24 14.9 SSE 15 28 8 15 1009.6 1005.7 0.0
05/02:30pm 36.1 33.6 12.3 24 14.6 SE 17 32 9 17 1009.8 1005.9 0.0
05/02:00pm 36.7 35.3 13.5 25 14.5 SE 13 32 7 17 1009.9 1006.0 0.0
05/01:30pm 36.2 33.3 13.0 24 14.4 ESE 20 33 11 18 1010.2 1006.3 0.0
05/01:00pm 35.0 32.0 12.6 26 13.7 ESE 20 33 11 18 1010.5 1006.6 0.0
05/12:30pm 35.7 32.1 13.2 26 13.9 ESE 24 41 13 22 1010.9 1007.0 0.0
05/12:00pm 34.5 30.2 12.2 26 13.6 ESE 26 39 14 21 1011.4 1007.5 0.0
05/11:30am 34.1 30.1 11.9 26 13.4 ESE 24 33 13 18 1012.0 1008.1 0.0
05/11:00am 33.7 29.0 12.1 27 13.1 ESE 28 39 15 21 1012.5 1008.6 0.0
05/10:30am 33.0 29.1 12.1 28 12.6 ESE 24 33 13 18 1013.0 1009.1 0.0
05/10:00am 32.5 29.0 12.2 29 12.3 ESE 22 35 12 19 1013.5 1009.6 0.0
05/09:30am 31.1 28.1 12.5 32 11.2 ESE 20 33 11 18 1013.9 1010.0 0.0
05/09:00am 30.1 26.3 12.5 34 10.6 ESE 24 33 13 18 1013.9 1010.0 -
05/08:30am 28.9 24.8 12.8 37 9.7 ESE 26 35 14 19 1013.9 1010.0 -
05/08:00am 27.1 24.9 14.5 46 7.7 ESE 19 28 10 15 1013.9 1010.0 -
05/07:30am 25.9 23.3 13.7 47 7.3 SE 20 30 11 16 1013.7 1009.8 0.0
05/07:00am 24.9 23.5 14.4 52 6.4 SE 15 22 8 12 1013.7 1009.8 0.0
05/06:30am 23.9 23.4 14.9 57 5.5 SE 11 19 6 10 1013.5 1009.6 0.0
05/06:00am 22.9 22.1 15.0 61 4.8 SE 13 20 7 11 1013.0 1009.1 0.0
05/05:30am 23.1 22.5 15.7 63 4.5 SE 13 20 7 11 1012.7 1008.8 0.0
05/05:00am 23.8 23.3 15.8 61 4.9 SE 13 20 7 11 1012.3 1008.4 0.0
05/04:30am 24.1 23.2 15.9 60 5.1 SE 15 22 8 12 1012.0 1008.1 0.0
05/04:00am 24.4 23.6 16.1 60 5.2 SE 15 24 8 13 1011.9 1008.0 0.0
05/03:30am 24.7 24.0 16.4 60 5.2 SE 15 26 8 14 1011.7 1007.8 0.0
05/03:00am 25.1 24.9 16.8 60 5.2 SE 13 20 7 11 1011.6 1007.7 0.0
05/02:30am 25.9 25.6 16.5 56 5.9 SE 13 24 7 13 1011.7 1007.8 0.0
05/02:00am 26.2 25.9 16.4 54 6.2 SE 13 20 7 11 1011.6 1007.7 0.0
05/01:30am 26.5 26.6 16.4 53 6.4 SE 11 19 6 10 1011.7 1007.8 0.0
05/01:00am 26.7 27.4 16.0 52 6.7 SE 7 13 4 7 1011.8 1007.9 0.0
05/12:30am 27.0 27.4 16.3 52 6.7 SE 9 15 5 8 1011.9 1008.0 0.0
05/12:00am 27.3 28.4 16.6 52 6.8 SE 6 9 3 5 1012.0 1008.1 0.0
 
Date/Time
WST
Temp
°C
App
Temp
°C
Dew
Point
Rel
Hum
%
Delta-T
°C
Wind Press
QNH
hPa
Press
MSL
hPa
Rain
since 9 am
mm
Dir
 
Spd
km/h
Gust
km/h
Spd
kts
Gust
kts
04/11:30pm 27.7 28.5 16.3 49 7.2 SSE 7 9 4 5 1012.1 1008.2 0.0
04/11:00pm 28.1 29.0 16.1 48 7.6 SSE 6 7 3 4 1012.3 1008.4 0.0
04/10:30pm 28.4 29.0 15.3 45 8.2 SSE 6 6 3 3 1012.4 1008.5 0.0
04/10:00pm 28.4 28.8 15.3 45 8.2 SSE 7 7 4 4 1012.4 1008.5 0.0
04/09:30pm 28.6 28.6 15.2 44 8.3 SSE 9 9 5 5 1012.3 1008.4 0.0
04/09:00pm 28.9 28.9 15.1 43 8.6 SSE 9 9 5 5 1012.2 1008.3 0.0
04/08:30pm 29.4 29.2 14.8 41 9.1 SSE 9 11 5 6 1012.0 1008.1 0.0
04/08:00pm 29.9 29.7 14.8 39 9.4 SSE 9 13 5 7 1011.9 1008.0 0.0
04/07:30pm 30.8 30.3 14.8 37 10.0 SSE 11 15 6 8 1011.7 1007.8 0.0
04/07:00pm 31.1 30.8 14.3 36 10.4 SSE 9 15 5 8 1011.3 1007.4 0.0
04/06:30pm 32.3 31.5 14.0 33 11.3 SSE 11 15 6 8 1011.1 1007.2 0.0
04/06:00pm 33.1 31.8 13.7 31 12.0 SSE 13 22 7 12 1010.7 1006.8 0.0
04/05:30pm 33.7 32.0 13.7 30 12.4 SSE 15 24 8 13 1010.6 1006.7 0.0
04/05:00pm 34.1 32.9 14.1 30 12.5 SE 13 24 7 13 1010.5 1006.6 0.0
04/04:30pm 34.0 32.3 13.5 29 12.7 ESE 15 26 8 14 1010.4 1006.5 0.0
04/04:00pm 33.6 32.3 13.6 29 12.4 SE 13 24 7 13 1010.5 1006.6 0.0
04/03:30pm 34.2 32.7 14.1 29 12.5 SSE 15 24 8 13 1010.6 1006.7 0.0
04/03:00pm 34.6 33.0 14.0 29 12.9 SSE 15 26 8 14 1010.8 1006.9 0.0
04/02:30pm 33.3 31.3 13.9 31 12.0 SE 17 26 9 14 1011.0 1007.1 0.0
04/02:00pm 33.5 31.4 13.5 29 12.4 SE 17 28 9 15 1011.5 1007.6 0.0
04/01:30pm 33.0 30.5 13.6 31 12.0 SSE 19 28 10 15 1011.9 1008.0 0.0
04/01:00pm 32.6 30.8 13.3 31 11.8 SE 15 24 8 13 1012.2 1008.3 0.0
04/12:30pm 31.8 29.2 13.1 32 11.4 SE 19 32 10 17 1012.7 1008.8 0.0
04/12:00pm 31.1 28.7 12.5 32 11.2 SE 17 30 9 16 1013.3 1009.5 0.0
04/11:30am 30.4 27.4 11.9 32 11.0 SE 19 30 10 16 1013.7 1009.8 0.0
04/11:00am 29.7 26.6 12.2 34 10.4 SE 20 35 11 19 1014.3 1010.4 0.0
04/10:30am 28.4 24.7 11.5 35 9.9 SE 22 33 12 18 1014.6 1010.7 0.0
04/10:00am 27.7 23.4 10.9 35 9.7 SE 24 35 13 19 1015.0 1011.1 0.0
04/09:30am 26.8 22.9 10.9 37 9.2 SE 22 33 12 18 1015.1 1011.3 0.0

Other Formats:

Comma delimited format used in spreadsheet applications
http://www.bom.gov.au/fwo/IDW60801/IDW60801.99736.axf

JavaScript Object Notation format (JSON) in row-major order
http://www.bom.gov.au/fwo/IDW60801/IDW60801.99736.json